International Virtual Aviation Organisation

Eastern Europe and Northern Asia MCD

 
URMN 121300Z 35003MPS 9999 OVC021CB 09/06 Q1020 R24/110060 NOSIG RMK QFE728
QNH:(hPa/inHg/mmHg)1020 / 30.12 / 765
QFE:(hPa/inHg/mmHg)1004 / 29.63 / 753
Temperature9
Dew Point6
Visibility> 10000
Weather
Cloud CoverOVC (2100);
Transition Height1000 m./3800 ft.
Transition LevelFL50
SQUAWK